sensor_id;sensor_type;location;lat;lon;timestamp;temperature;humidity
81192;DHT22;70665;47.652;-2.730;2023-11-22T00:00:36;11.30;90.00
81192;DHT22;70665;47.652;-2.730;2023-11-22T00:03:02;11.20;90.10
81192;DHT22;70665;47.652;-2.730;2023-11-22T00:05:28;11.30;90.00
81192;DHT22;70665;47.652;-2.730;2023-11-22T00:07:53;11.20;89.90
81192;DHT22;70665;47.652;-2.730;2023-11-22T00:10:19;11.20;89.90
81192;DHT22;70665;47.652;-2.730;2023-11-22T00:12:45;11.20;90.40
81192;DHT22;70665;47.652;-2.730;2023-11-22T00:15:11;11.20;90.30
81192;DHT22;70665;47.652;-2.730;2023-11-22T00:17:37;11.30;90.30
81192;DHT22;70665;47.652;-2.730;2023-11-22T00:20:03;11.20;90.20
81192;DHT22;70665;47.652;-2.730;2023-11-22T00:22:34;11.30;90.00
81192;DHT22;70665;47.652;-2.730;2023-11-22T00:25:01;11.40;89.90
81192;DHT22;70665;47.652;-2.730;2023-11-22T00:27:28;11.50;89.80
81192;DHT22;70665;47.652;-2.730;2023-11-22T00:29:55;11.50;89.80
81192;DHT22;70665;47.652;-2.730;2023-11-22T00:32:21;11.50;89.40
81192;DHT22;70665;47.652;-2.730;2023-11-22T00:34:46;11.70;89.50
81192;DHT22;70665;47.652;-2.730;2023-11-22T00:37:13;11.60;89.50
81192;DHT22;70665;47.652;-2.730;2023-11-22T00:39:39;11.60;89.50
81192;DHT22;70665;47.652;-2.730;2023-11-22T00:42:04;11.70;89.40
81192;DHT22;70665;47.652;-2.730;2023-11-22T00:44:31;11.60;89.60
81192;DHT22;70665;47.652;-2.730;2023-11-22T00:46:56;11.60;89.40
81192;DHT22;70665;47.652;-2.730;2023-11-22T00:49:22;11.60;89.80
81192;DHT22;70665;47.652;-2.730;2023-11-22T00:51:48;11.50;89.90
81192;DHT22;70665;47.652;-2.730;2023-11-22T00:54:14;11.50;90.30
81192;DHT22;70665;47.652;-2.730;2023-11-22T00:56:40;11.50;90.40
81192;DHT22;70665;47.652;-2.730;2023-11-22T00:59:06;11.50;90.60
81192;DHT22;70665;47.652;-2.730;2023-11-22T01:01:31;11.60;90.60
81192;DHT22;70665;47.652;-2.730;2023-11-22T01:03:57;11.60;90.70
81192;DHT22;70665;47.652;-2.730;2023-11-22T01:06:23;11.60;90.40
81192;DHT22;70665;47.652;-2.730;2023-11-22T01:08:49;11.60;90.60
81192;DHT22;70665;47.652;-2.730;2023-11-22T01:11:15;11.70;90.40
81192;DHT22;70665;47.652;-2.730;2023-11-22T01:13:41;11.70;90.30
81192;DHT22;70665;47.652;-2.730;2023-11-22T01:16:09;11.70;90.10
81192;DHT22;70665;47.652;-2.730;2023-11-22T01:18:35;11.80;90.20
81192;DHT22;70665;47.652;-2.730;2023-11-22T01:21:01;11.80;90.30
81192;DHT22;70665;47.652;-2.730;2023-11-22T01:23:26;11.80;90.50
81192;DHT22;70665;47.652;-2.730;2023-11-22T01:25:55;11.80;90.50
81192;DHT22;70665;47.652;-2.730;2023-11-22T01:28:20;11.90;90.60
81192;DHT22;70665;47.652;-2.730;2023-11-22T01:30:46;11.90;90.60
81192;DHT22;70665;47.652;-2.730;2023-11-22T01:33:12;11.80;90.60
81192;DHT22;70665;47.652;-2.730;2023-11-22T01:35:38;11.90;91.00
81192;DHT22;70665;47.652;-2.730;2023-11-22T01:38:04;11.90;91.00
81192;DHT22;70665;47.652;-2.730;2023-11-22T01:40:31;12.00;90.90
81192;DHT22;70665;47.652;-2.730;2023-11-22T01:43:00;12.00;90.90
81192;DHT22;70665;47.652;-2.730;2023-11-22T01:45:29;12.00;90.70
81192;DHT22;70665;47.652;-2.730;2023-11-22T01:47:55;11.90;90.70
81192;DHT22;70665;47.652;-2.730;2023-11-22T01:50:21;12.00;90.80
81192;DHT22;70665;47.652;-2.730;2023-11-22T01:52:47;12.00;90.50
81192;DHT22;70665;47.652;-2.730;2023-11-22T01:55:13;11.90;90.20
81192;DHT22;70665;47.652;-2.730;2023-11-22T01:57:39;11.90;90.30
81192;DHT22;70665;47.652;-2.730;2023-11-22T02:00:05;11.90;90.10
81192;DHT22;70665;47.652;-2.730;2023-11-22T02:02:40;11.90;89.70
81192;DHT22;70665;47.652;-2.730;2023-11-22T02:05:06;12.00;89.60
81192;DHT22;70665;47.652;-2.730;2023-11-22T02:07:31;11.90;89.40
81192;DHT22;70665;47.652;-2.730;2023-11-22T02:10:00;11.90;89.80
81192;DHT22;70665;47.652;-2.730;2023-11-22T02:12:28;12.00;89.70
81192;DHT22;70665;47.652;-2.730;2023-11-22T02:14:53;11.90;89.40
81192;DHT22;70665;47.652;-2.730;2023-11-22T02:17:19;12.00;89.40
81192;DHT22;70665;47.652;-2.730;2023-11-22T02:19:46;12.00;89.30
81192;DHT22;70665;47.652;-2.730;2023-11-22T02:22:12;12.00;89.20
81192;DHT22;70665;47.652;-2.730;2023-11-22T02:24:37;12.00;89.30
81192;DHT22;70665;47.652;-2.730;2023-11-22T02:27:03;12.00;89.20
81192;DHT22;70665;47.652;-2.730;2023-11-22T02:29:29;12.00;88.80
81192;DHT22;70665;47.652;-2.730;2023-11-22T02:31:55;12.00;88.80
81192;DHT22;70665;47.652;-2.730;2023-11-22T02:34:20;11.90;88.80
81192;DHT22;70665;47.652;-2.730;2023-11-22T02:36:46;11.90;88.80
81192;DHT22;70665;47.652;-2.730;2023-11-22T02:39:12;11.90;88.50
81192;DHT22;70665;47.652;-2.730;2023-11-22T02:41:39;12.00;88.60
81192;DHT22;70665;47.652;-2.730;2023-11-22T02:44:05;11.90;88.40
81192;DHT22;70665;47.652;-2.730;2023-11-22T02:46:33;11.90;88.70
81192;DHT22;70665;47.652;-2.730;2023-11-22T02:48:59;11.90;88.40
81192;DHT22;70665;47.652;-2.730;2023-11-22T02:51:25;12.00;88.20
81192;DHT22;70665;47.652;-2.730;2023-11-22T02:53:51;12.00;88.40
81192;DHT22;70665;47.652;-2.730;2023-11-22T02:56:17;11.80;88.20
81192;DHT22;70665;47.652;-2.730;2023-11-22T02:58:43;11.80;88.30
81192;DHT22;70665;47.652;-2.730;2023-11-22T03:01:08;11.90;87.90
81192;DHT22;70665;47.652;-2.730;2023-11-22T03:03:35;11.80;88.10
81192;DHT22;70665;47.652;-2.730;2023-11-22T03:06:00;11.90;87.90
81192;DHT22;70665;47.652;-2.730;2023-11-22T03:08:26;11.80;87.70
81192;DHT22;70665;47.652;-2.730;2023-11-22T03:10:53;11.80;87.70
81192;DHT22;70665;47.652;-2.730;2023-11-22T03:13:19;11.90;87.90
81192;DHT22;70665;47.652;-2.730;2023-11-22T03:15:45;11.80;87.90
81192;DHT22;70665;47.652;-2.730;2023-11-22T03:18:11;11.90;87.90
81192;DHT22;70665;47.652;-2.730;2023-11-22T03:20:37;11.80;87.90
81192;DHT22;70665;47.652;-2.730;2023-11-22T03:23:03;11.90;87.90
81192;DHT22;70665;47.652;-2.730;2023-11-22T03:25:30;11.90;87.70
81192;DHT22;70665;47.652;-2.730;2023-11-22T03:27:56;11.90;87.60
81192;DHT22;70665;47.652;-2.730;2023-11-22T03:30:21;11.90;87.50
81192;DHT22;70665;47.652;-2.730;2023-11-22T03:32:47;11.80;87.40
81192;DHT22;70665;47.652;-2.730;2023-11-22T03:35:15;11.70;87.50
81192;DHT22;70665;47.652;-2.730;2023-11-22T03:37:42;11.80;86.90
81192;DHT22;70665;47.652;-2.730;2023-11-22T03:40:08;11.80;87.10
81192;DHT22;70665;47.652;-2.730;2023-11-22T03:42:36;11.80;86.90
81192;DHT22;70665;47.652;-2.730;2023-11-22T03:45:03;12.00;86.70
81192;DHT22;70665;47.652;-2.730;2023-11-22T03:47:29;12.00;86.30
81192;DHT22;70665;47.652;-2.730;2023-11-22T03:49:54;12.00;86.10
81192;DHT22;70665;47.652;-2.730;2023-11-22T03:52:20;12.00;86.00
81192;DHT22;70665;47.652;-2.730;2023-11-22T03:54:45;12.00;85.50
81192;DHT22;70665;47.652;-2.730;2023-11-22T03:57:11;12.10;85.50
81192;DHT22;70665;47.652;-2.730;2023-11-22T03:59:37;12.10;85.30
81192;DHT22;70665;47.652;-2.730;2023-11-22T04:02:02;12.00;85.10
81192;DHT22;70665;47.652;-2.730;2023-11-22T04:04:29;12.10;85.20
81192;DHT22;70665;47.652;-2.730;2023-11-22T04:06:55;12.10;84.30
81192;DHT22;70665;47.652;-2.730;2023-11-22T04:09:22;12.10;84.10
81192;DHT22;70665;47.652;-2.730;2023-11-22T04:11:47;12.20;84.30
81192;DHT22;70665;47.652;-2.730;2023-11-22T04:14:13;12.10;84.40
81192;DHT22;70665;47.652;-2.730;2023-11-22T04:16:39;12.00;83.70
81192;DHT22;70665;47.652;-2.730;2023-11-22T04:19:04;12.10;83.30
81192;DHT22;70665;47.652;-2.730;2023-11-22T04:21:30;12.10;83.60
81192;DHT22;70665;47.652;-2.730;2023-11-22T04:23:55;12.30;82.70
81192;DHT22;70665;47.652;-2.730;2023-11-22T04:26:21;12.30;83.00
81192;DHT22;70665;47.652;-2.730;2023-11-22T04:28:47;12.20;81.80
81192;DHT22;70665;47.652;-2.730;2023-11-22T04:31:13;12.10;81.80
81192;DHT22;70665;47.652;-2.730;2023-11-22T04:33:38;12.10;82.30
81192;DHT22;70665;47.652;-2.730;2023-11-22T04:36:04;12.10;82.20
81192;DHT22;70665;47.652;-2.730;2023-11-22T04:38:30;12.10;82.20
81192;DHT22;70665;47.652;-2.730;2023-11-22T04:40:55;12.20;82.30
81192;DHT22;70665;47.652;-2.730;2023-11-22T04:43:21;12.00;82.00
81192;DHT22;70665;47.652;-2.730;2023-11-22T04:45:47;12.10;82.00
81192;DHT22;70665;47.652;-2.730;2023-11-22T04:48:12;12.10;82.00
81192;DHT22;70665;47.652;-2.730;2023-11-22T04:50:41;12.00;82.20
81192;DHT22;70665;47.652;-2.730;2023-11-22T04:53:08;12.00;82.00
81192;DHT22;70665;47.652;-2.730;2023-11-22T04:55:34;12.00;82.30
81192;DHT22;70665;47.652;-2.730;2023-11-22T04:57:59;12.00;82.10
81192;DHT22;70665;47.652;-2.730;2023-11-22T05:00:25;12.10;81.80
81192;DHT22;70665;47.652;-2.730;2023-11-22T05:02:51;12.10;81.50
81192;DHT22;70665;47.652;-2.730;2023-11-22T05:05:16;12.10;81.90
81192;DHT22;70665;47.652;-2.730;2023-11-22T05:07:42;12.10;82.20
81192;DHT22;70665;47.652;-2.730;2023-11-22T05:10:10;12.20;82.30
81192;DHT22;70665;47.652;-2.730;2023-11-22T05:12:35;12.00;82.60
81192;DHT22;70665;47.652;-2.730;2023-11-22T05:15:04;12.20;82.70
81192;DHT22;70665;47.652;-2.730;2023-11-22T05:17:30;12.20;83.30
81192;DHT22;70665;47.652;-2.730;2023-11-22T05:19:56;12.10;83.20
81192;DHT22;70665;47.652;-2.730;2023-11-22T05:22:21;12.10;83.00
81192;DHT22;70665;47.652;-2.730;2023-11-22T05:24:48;12.20;83.10
81192;DHT22;70665;47.652;-2.730;2023-11-22T05:27:14;12.00;83.10
81192;DHT22;70665;47.652;-2.730;2023-11-22T05:29:40;12.00;83.30
81192;DHT22;70665;47.652;-2.730;2023-11-22T05:32:06;12.10;83.20
81192;DHT22;70665;47.652;-2.730;2023-11-22T05:34:32;12.00;83.20
81192;DHT22;70665;47.652;-2.730;2023-11-22T05:36:58;12.00;83.30
81192;DHT22;70665;47.652;-2.730;2023-11-22T05:39:23;11.80;83.00
81192;DHT22;70665;47.652;-2.730;2023-11-22T05:41:50;11.80;82.60
81192;DHT22;70665;47.652;-2.730;2023-11-22T05:44:16;11.80;81.70
81192;DHT22;70665;47.652;-2.730;2023-11-22T05:46:41;11.80;81.70
81192;DHT22;70665;47.652;-2.730;2023-11-22T05:49:07;11.80;81.10
81192;DHT22;70665;47.652;-2.730;2023-11-22T05:51:33;11.70;80.60
81192;DHT22;70665;47.652;-2.730;2023-11-22T05:53:59;11.70;80.50
81192;DHT22;70665;47.652;-2.730;2023-11-22T05:56:26;11.70;80.50
81192;DHT22;70665;47.652;-2.730;2023-11-22T05:58:51;11.90;79.80
81192;DHT22;70665;47.652;-2.730;2023-11-22T06:01:17;11.90;80.10
81192;DHT22;70665;47.652;-2.730;2023-11-22T06:03:43;11.90;79.40
81192;DHT22;70665;47.652;-2.730;2023-11-22T06:06:08;11.90;79.50
81192;DHT22;70665;47.652;-2.730;2023-11-22T06:08:34;11.80;79.20
81192;DHT22;70665;47.652;-2.730;2023-11-22T06:11:00;11.70;79.00
81192;DHT22;70665;47.652;-2.730;2023-11-22T06:13:26;11.80;79.30
81192;DHT22;70665;47.652;-2.730;2023-11-22T06:15:52;11.70;79.40
81192;DHT22;70665;47.652;-2.730;2023-11-22T06:18:18;11.80;79.30
81192;DHT22;70665;47.652;-2.730;2023-11-22T06:20:44;11.70;79.50
81192;DHT22;70665;47.652;-2.730;2023-11-22T06:23:10;11.80;79.20
81192;DHT22;70665;47.652;-2.730;2023-11-22T06:25:36;11.70;78.60
81192;DHT22;70665;47.652;-2.730;2023-11-22T06:28:04;11.80;79.00
81192;DHT22;70665;47.652;-2.730;2023-11-22T06:30:30;11.70;78.70
81192;DHT22;70665;47.652;-2.730;2023-11-22T06:32:56;11.70;79.30
81192;DHT22;70665;47.652;-2.730;2023-11-22T06:35:22;11.70;79.40
81192;DHT22;70665;47.652;-2.730;2023-11-22T06:37:48;11.70;79.20
81192;DHT22;70665;47.652;-2.730;2023-11-22T06:40:14;11.70;79.20
81192;DHT22;70665;47.652;-2.730;2023-11-22T06:42:40;11.70;78.40
81192;DHT22;70665;47.652;-2.730;2023-11-22T06:45:07;11.80;78.60
81192;DHT22;70665;47.652;-2.730;2023-11-22T06:47:38;11.80;78.60
81192;DHT22;70665;47.652;-2.730;2023-11-22T06:50:04;11.90;78.50
81192;DHT22;70665;47.652;-2.730;2023-11-22T06:52:35;11.80;78.70
81192;DHT22;70665;47.652;-2.730;2023-11-22T06:55:01;11.90;78.30
81192;DHT22;70665;47.652;-2.730;2023-11-22T06:57:27;11.90;77.80
81192;DHT22;70665;47.652;-2.730;2023-11-22T06:59:55;11.80;78.40
81192;DHT22;70665;47.652;-2.730;2023-11-22T07:02:21;11.70;77.70
81192;DHT22;70665;47.652;-2.730;2023-11-22T07:04:47;11.80;78.10
81192;DHT22;70665;47.652;-2.730;2023-11-22T07:07:12;11.80;77.60
81192;DHT22;70665;47.652;-2.730;2023-11-22T07:09:42;11.80;77.30
81192;DHT22;70665;47.652;-2.730;2023-11-22T07:12:08;11.70;77.30
81192;DHT22;70665;47.652;-2.730;2023-11-22T07:14:33;11.70;77.30
81192;DHT22;70665;47.652;-2.730;2023-11-22T07:16:59;11.70;77.40
81192;DHT22;70665;47.652;-2.730;2023-11-22T07:19:25;11.60;77.90
81192;DHT22;70665;47.652;-2.730;2023-11-22T07:21:50;11.60;76.80
81192;DHT22;70665;47.652;-2.730;2023-11-22T07:24:17;11.60;76.90
81192;DHT22;70665;47.652;-2.730;2023-11-22T07:26:44;11.60;77.10
81192;DHT22;70665;47.652;-2.730;2023-11-22T07:29:10;11.70;76.20
81192;DHT22;70665;47.652;-2.730;2023-11-22T07:31:40;11.70;76.00
81192;DHT22;70665;47.652;-2.730;2023-11-22T07:34:08;11.70;75.90
81192;DHT22;70665;47.652;-2.730;2023-11-22T07:36:36;11.70;76.20
81192;DHT22;70665;47.652;-2.730;2023-11-22T07:39:03;11.70;76.70
81192;DHT22;70665;47.652;-2.730;2023-11-22T07:41:30;11.60;76.30
81192;DHT22;70665;47.652;-2.730;2023-11-22T07:43:57;11.60;76.40
81192;DHT22;70665;47.652;-2.730;2023-11-22T07:46:22;11.60;76.50
81192;DHT22;70665;47.652;-2.730;2023-11-22T07:48:48;11.60;76.90
81192;DHT22;70665;47.652;-2.730;2023-11-22T07:51:15;11.50;76.80
81192;DHT22;70665;47.652;-2.730;2023-11-22T07:53:43;11.60;76.80
81192;DHT22;70665;47.652;-2.730;2023-11-22T07:56:09;11.50;77.10
81192;DHT22;70665;47.652;-2.730;2023-11-22T07:58:37;11.60;77.40
81192;DHT22;70665;47.652;-2.730;2023-11-22T08:01:03;11.60;75.90
81192;DHT22;70665;47.652;-2.730;2023-11-22T08:03:32;11.50;76.90
81192;DHT22;70665;47.652;-2.730;2023-11-22T08:06:01;11.50;76.70
81192;DHT22;70665;47.652;-2.730;2023-11-22T08:08:28;11.50;77.20
81192;DHT22;70665;47.652;-2.730;2023-11-22T08:10:54;11.60;76.80
81192;DHT22;70665;47.652;-2.730;2023-11-22T08:13:22;11.70;76.60
81192;DHT22;70665;47.652;-2.730;2023-11-22T08:15:48;11.70;76.40
81192;DHT22;70665;47.652;-2.730;2023-11-22T08:18:14;11.80;76.80
81192;DHT22;70665;47.652;-2.730;2023-11-22T08:20:42;11.90;76.70
81192;DHT22;70665;47.652;-2.730;2023-11-22T08:23:09;11.90;76.30
81192;DHT22;70665;47.652;-2.730;2023-11-22T08:25:35;12.00;76.20
81192;DHT22;70665;47.652;-2.730;2023-11-22T08:28:00;12.20;75.70
81192;DHT22;70665;47.652;-2.730;2023-11-22T08:30:26;12.30;75.90
81192;DHT22;70665;47.652;-2.730;2023-11-22T08:32:52;12.40;75.40
81192;DHT22;70665;47.652;-2.730;2023-11-22T08:35:20;12.60;75.10
81192;DHT22;70665;47.652;-2.730;2023-11-22T08:37:48;12.60;75.00
81192;DHT22;70665;47.652;-2.730;2023-11-22T08:40:16;12.60;75.00
81192;DHT22;70665;47.652;-2.730;2023-11-22T08:42:42;12.50;75.10
81192;DHT22;70665;47.652;-2.730;2023-11-22T08:45:09;12.50;74.10
81192;DHT22;70665;47.652;-2.730;2023-11-22T08:47:37;12.30;74.50
81192;DHT22;70665;47.652;-2.730;2023-11-22T08:50:03;12.40;75.30
81192;DHT22;70665;47.652;-2.730;2023-11-22T08:52:30;12.40;74.70
81192;DHT22;70665;47.652;-2.730;2023-11-22T08:54:56;12.20;75.20
81192;DHT22;70665;47.652;-2.730;2023-11-22T08:57:22;12.20;76.10
81192;DHT22;70665;47.652;-2.730;2023-11-22T08:59:48;12.10;75.30
81192;DHT22;70665;47.652;-2.730;2023-11-22T09:02:14;12.30;75.20
81192;DHT22;70665;47.652;-2.730;2023-11-22T09:04:40;12.20;75.70
81192;DHT22;70665;47.652;-2.730;2023-11-22T09:07:07;12.30;75.90
81192;DHT22;70665;47.652;-2.730;2023-11-22T09:09:35;12.40;75.80
81192;DHT22;70665;47.652;-2.730;2023-11-22T09:12:01;12.40;75.30
81192;DHT22;70665;47.652;-2.730;2023-11-22T09:14:27;12.60;74.80
81192;DHT22;70665;47.652;-2.730;2023-11-22T09:16:53;12.60;74.20
81192;DHT22;70665;47.652;-2.730;2023-11-22T09:19:21;12.80;75.00
81192;DHT22;70665;47.652;-2.730;2023-11-22T09:21:46;13.00;74.10
81192;DHT22;70665;47.652;-2.730;2023-11-22T09:24:12;13.10;73.60
81192;DHT22;70665;47.652;-2.730;2023-11-22T09:26:38;13.20;74.30
81192;DHT22;70665;47.652;-2.730;2023-11-22T09:29:03;13.30;72.70
81192;DHT22;70665;47.652;-2.730;2023-11-22T09:31:30;13.30;71.90
81192;DHT22;70665;47.652;-2.730;2023-11-22T09:33:56;13.30;71.80
81192;DHT22;70665;47.652;-2.730;2023-11-22T09:36:22;13.30;73.10
81192;DHT22;70665;47.652;-2.730;2023-11-22T09:38:49;13.10;71.90
81192;DHT22;70665;47.652;-2.730;2023-11-22T09:41:16;13.10;72.10
81192;DHT22;70665;47.652;-2.730;2023-11-22T09:43:43;13.20;72.40
81192;DHT22;70665;47.652;-2.730;2023-11-22T09:46:09;13.40;72.80
81192;DHT22;70665;47.652;-2.730;2023-11-22T09:48:37;13.70;72.60
81192;DHT22;70665;47.652;-2.730;2023-11-22T09:53:40;13.50;70.90
81192;DHT22;70665;47.652;-2.730;2023-11-22T09:56:10;13.50;73.00
81192;DHT22;70665;47.652;-2.730;2023-11-22T09:58:40;13.50;70.90
81192;DHT22;70665;47.652;-2.730;2023-11-22T10:01:13;13.60;71.60
81192;DHT22;70665;47.652;-2.730;2023-11-22T10:03:39;13.60;71.30
81192;DHT22;70665;47.652;-2.730;2023-11-22T10:06:05;13.70;72.50
81192;DHT22;70665;47.652;-2.730;2023-11-22T10:08:31;13.60;72.20
81192;DHT22;70665;47.652;-2.730;2023-11-22T10:10:59;13.60;71.70
81192;DHT22;70665;47.652;-2.730;2023-11-22T10:13:25;13.50;72.60
81192;DHT22;70665;47.652;-2.730;2023-11-22T10:15:51;13.60;72.80
81192;DHT22;70665;47.652;-2.730;2023-11-22T10:18:21;13.60;72.50
81192;DHT22;70665;47.652;-2.730;2023-11-22T10:20:50;13.50;71.80
81192;DHT22;70665;47.652;-2.730;2023-11-22T10:23:17;13.70;72.80
81192;DHT22;70665;47.652;-2.730;2023-11-22T10:25:48;13.70;71.10
81192;DHT22;70665;47.652;-2.730;2023-11-22T10:28:20;13.80;71.40
81192;DHT22;70665;47.652;-2.730;2023-11-22T10:30:47;13.90;71.20
81192;DHT22;70665;47.652;-2.730;2023-11-22T10:33:14;14.00;70.80
81192;DHT22;70665;47.652;-2.730;2023-11-22T10:35:48;14.10;69.60
81192;DHT22;70665;47.652;-2.730;2023-11-22T10:38:15;14.10;69.80
81192;DHT22;70665;47.652;-2.730;2023-11-22T10:40:41;14.10;69.60
81192;DHT22;70665;47.652;-2.730;2023-11-22T10:43:11;14.00;69.60
81192;DHT22;70665;47.652;-2.730;2023-11-22T10:45:37;14.00;69.60
81192;DHT22;70665;47.652;-2.730;2023-11-22T10:48:03;14.00;69.60
81192;DHT22;70665;47.652;-2.730;2023-11-22T10:50:29;13.90;69.40
81192;DHT22;70665;47.652;-2.730;2023-11-22T10:52:57;13.90;70.50
81192;DHT22;70665;47.652;-2.730;2023-11-22T10:55:26;13.80;70.20
81192;DHT22;70665;47.652;-2.730;2023-11-22T10:57:55;13.90;71.20
81192;DHT22;70665;47.652;-2.730;2023-11-22T11:00:22;13.80;71.90
81192;DHT22;70665;47.652;-2.730;2023-11-22T11:02:59;13.80;71.20
81192;DHT22;70665;47.652;-2.730;2023-11-22T11:05:31;14.10;70.30
81192;DHT22;70665;47.652;-2.730;2023-11-22T11:08:08;14.30;69.00
81192;DHT22;70665;47.652;-2.730;2023-11-22T11:10:41;14.30;68.20
81192;DHT22;70665;47.652;-2.730;2023-11-22T11:13:07;14.40;68.60
81192;DHT22;70665;47.652;-2.730;2023-11-22T11:15:38;14.30;69.20
81192;DHT22;70665;47.652;-2.730;2023-11-22T11:18:06;14.30;68.10
81192;DHT22;70665;47.652;-2.730;2023-11-22T11:20:58;14.30;67.40
81192;DHT22;70665;47.652;-2.730;2023-11-22T11:23:26;14.40;67.30
81192;DHT22;70665;47.652;-2.730;2023-11-22T11:25:57;14.50;67.70
81192;DHT22;70665;47.652;-2.730;2023-11-22T11:28:24;14.60;67.30
81192;DHT22;70665;47.652;-2.730;2023-11-22T11:30:53;14.80;67.60
81192;DHT22;70665;47.652;-2.730;2023-11-22T11:33:27;14.90;67.40
81192;DHT22;70665;47.652;-2.730;2023-11-22T11:35:54;15.00;67.10
81192;DHT22;70665;47.652;-2.730;2023-11-22T11:38:30;15.20;66.60
81192;DHT22;70665;47.652;-2.730;2023-11-22T11:40:56;15.30;65.30
81192;DHT22;70665;47.652;-2.730;2023-11-22T11:43:40;15.30;64.30
81192;DHT22;70665;47.652;-2.730;2023-11-22T11:46:10;15.10;64.20
81192;DHT22;70665;47.652;-2.730;2023-11-22T11:48:36;15.20;64.30
81192;DHT22;70665;47.652;-2.730;2023-11-22T11:51:02;15.20;64.90
81192;DHT22;70665;47.652;-2.730;2023-11-22T11:53:27;15.10;62.80
81192;DHT22;70665;47.652;-2.730;2023-11-22T11:55:54;15.20;62.70
81192;DHT22;70665;47.652;-2.730;2023-11-22T11:58:20;15.40;63.20
81192;DHT22;70665;47.652;-2.730;2023-11-22T12:00:45;15.60;62.30
81192;DHT22;70665;47.652;-2.730;2023-11-22T12:03:11;15.80;64.20
81192;DHT22;70665;47.652;-2.730;2023-11-22T12:05:39;16.10;61.90
81192;DHT22;70665;47.652;-2.730;2023-11-22T12:08:05;16.40;63.80
81192;DHT22;70665;47.652;-2.730;2023-11-22T12:10:31;16.70;61.30
81192;DHT22;70665;47.652;-2.730;2023-11-22T12:12:57;17.00;60.70
81192;DHT22;70665;47.652;-2.730;2023-11-22T12:15:24;17.10;59.50
81192;DHT22;70665;47.652;-2.730;2023-11-22T12:17:50;16.80;59.60
81192;DHT22;70665;47.652;-2.730;2023-11-22T12:20:17;16.10;61.50
81192;DHT22;70665;47.652;-2.730;2023-11-22T12:22:49;15.70;61.40
81192;DHT22;70665;47.652;-2.730;2023-11-22T12:25:15;16.10;60.70
81192;DHT22;70665;47.652;-2.730;2023-11-22T12:27:41;16.10;59.40
81192;DHT22;70665;47.652;-2.730;2023-11-22T12:30:08;16.40;59.40
81192;DHT22;70665;47.652;-2.730;2023-11-22T12:32:34;16.50;58.20
81192;DHT22;70665;47.652;-2.730;2023-11-22T12:34:59;16.90;56.80
81192;DHT22;70665;47.652;-2.730;2023-11-22T12:37:27;17.20;56.80
81192;DHT22;70665;47.652;-2.730;2023-11-22T12:39:54;17.50;57.90
81192;DHT22;70665;47.652;-2.730;2023-11-22T12:42:20;17.90;57.70
81192;DHT22;70665;47.652;-2.730;2023-11-22T12:44:49;18.10;53.10
81192;DHT22;70665;47.652;-2.730;2023-11-22T12:47:15;18.30;55.80
81192;DHT22;70665;47.652;-2.730;2023-11-22T12:49:45;18.50;55.30
81192;DHT22;70665;47.652;-2.730;2023-11-22T12:52:11;18.30;54.00
81192;DHT22;70665;47.652;-2.730;2023-11-22T12:54:37;18.00;56.70
81192;DHT22;70665;47.652;-2.730;2023-11-22T12:57:09;17.40;58.90
81192;DHT22;70665;47.652;-2.730;2023-11-22T12:59:35;16.80;60.30
81192;DHT22;70665;47.652;-2.730;2023-11-22T13:02:01;16.40;59.50
81192;DHT22;70665;47.652;-2.730;2023-11-22T13:04:28;16.50;59.30
81192;DHT22;70665;47.652;-2.730;2023-11-22T13:06:55;17.20;58.20
81192;DHT22;70665;47.652;-2.730;2023-11-22T13:09:20;17.50;57.10
81192;DHT22;70665;47.652;-2.730;2023-11-22T13:11:46;18.40;55.50
81192;DHT22;70665;47.652;-2.730;2023-11-22T13:14:12;18.10;56.70
81192;DHT22;70665;47.652;-2.730;2023-11-22T13:16:42;17.40;57.90
81192;DHT22;70665;47.652;-2.730;2023-11-22T13:19:08;17.20;58.20
81192;DHT22;70665;47.652;-2.730;2023-11-22T13:21:34;18.20;58.10
81192;DHT22;70665;47.652;-2.730;2023-11-22T13:24:01;19.30;55.70
81192;DHT22;70665;47.652;-2.730;2023-11-22T13:26:27;19.70;51.40
81192;DHT22;70665;47.652;-2.730;2023-11-22T13:28:52;20.00;50.00
81192;DHT22;70665;47.652;-2.730;2023-11-22T13:31:20;20.50;51.90
81192;DHT22;70665;47.652;-2.730;2023-11-22T13:33:47;20.00;53.20
81192;DHT22;70665;47.652;-2.730;2023-11-22T13:36:13;18.90;52.40
81192;DHT22;70665;47.652;-2.730;2023-11-22T13:38:40;18.10;55.60
81192;DHT22;70665;47.652;-2.730;2023-11-22T13:41:05;17.30;57.10
81192;DHT22;70665;47.652;-2.730;2023-11-22T13:43:31;17.40;55.20
81192;DHT22;70665;47.652;-2.730;2023-11-22T13:45:58;17.60;58.50
81192;DHT22;70665;47.652;-2.730;2023-11-22T13:48:26;17.40;57.80
81192;DHT22;70665;47.652;-2.730;2023-11-22T13:50:54;17.90;57.70
81192;DHT22;70665;47.652;-2.730;2023-11-22T13:53:20;17.80;54.90
81192;DHT22;70665;47.652;-2.730;2023-11-22T13:55:48;17.50;56.80
81192;DHT22;70665;47.652;-2.730;2023-11-22T13:58:16;17.40;56.80
81192;DHT22;70665;47.652;-2.730;2023-11-22T14:00:41;17.40;55.10
81192;DHT22;70665;47.652;-2.730;2023-11-22T14:03:07;18.80;56.30
81192;DHT22;70665;47.652;-2.730;2023-11-22T14:05:34;19.50;51.10
81192;DHT22;70665;47.652;-2.730;2023-11-22T14:08:00;19.70;52.60
81192;DHT22;70665;47.652;-2.730;2023-11-22T14:10:26;20.00;49.90
81192;DHT22;70665;47.652;-2.730;2023-11-22T14:12:52;20.30;49.10
81192;DHT22;70665;47.652;-2.730;2023-11-22T14:15:18;19.70;52.20
81192;DHT22;70665;47.652;-2.730;2023-11-22T14:17:45;18.70;53.30
81192;DHT22;70665;47.652;-2.730;2023-11-22T14:20:15;17.80;56.80
81192;DHT22;70665;47.652;-2.730;2023-11-22T14:22:40;17.40;56.50
81192;DHT22;70665;47.652;-2.730;2023-11-22T14:25:08;18.00;57.10
81192;DHT22;70665;47.652;-2.730;2023-11-22T14:27:47;17.30;55.30
81192;DHT22;70665;47.652;-2.730;2023-11-22T14:30:18;16.90;58.80
81192;DHT22;70665;47.652;-2.730;2023-11-22T14:32:46;16.90;60.60
81192;DHT22;70665;47.652;-2.730;2023-11-22T14:35:12;17.20;56.10
81192;DHT22;70665;47.652;-2.730;2023-11-22T14:37:38;18.40;54.20
81192;DHT22;70665;47.652;-2.730;2023-11-22T14:40:09;19.60;52.50
81192;DHT22;70665;47.652;-2.730;2023-11-22T14:42:45;20.10;51.20
81192;DHT22;70665;47.652;-2.730;2023-11-22T14:45:13;20.30;52.40
81192;DHT22;70665;47.652;-2.730;2023-11-22T14:47:39;20.30;51.30
81192;DHT22;70665;47.652;-2.730;2023-11-22T14:50:06;20.20;47.40
81192;DHT22;70665;47.652;-2.730;2023-11-22T14:52:32;19.90;52.50
81192;DHT22;70665;47.652;-2.730;2023-11-22T14:54:58;19.70;49.30
81192;DHT22;70665;47.652;-2.730;2023-11-22T14:57:26;19.70;51.70
81192;DHT22;70665;47.652;-2.730;2023-11-22T14:59:52;19.00;50.00
81192;DHT22;70665;47.652;-2.730;2023-11-22T15:02:17;18.70;52.70
81192;DHT22;70665;47.652;-2.730;2023-11-22T15:04:43;18.80;53.80
81192;DHT22;70665;47.652;-2.730;2023-11-22T15:07:09;18.80;50.20
81192;DHT22;70665;47.652;-2.730;2023-11-22T15:09:37;18.90;52.10
81192;DHT22;70665;47.652;-2.730;2023-11-22T15:12:04;19.00;51.50
81192;DHT22;70665;47.652;-2.730;2023-11-22T15:14:32;19.10;52.80